sensor_id;sensor_type;location;lat;lon;timestamp;temperature;humidity
2523;DHT22;1272;53.332;9.860;2023-04-24T00:00:06;12.90;99.90
2523;DHT22;1272;53.332;9.860;2023-04-24T00:02:32;12.90;99.90
2523;DHT22;1272;53.332;9.860;2023-04-24T00:04:59;12.80;99.90
2523;DHT22;1272;53.332;9.860;2023-04-24T00:07:27;12.80;99.90
2523;DHT22;1272;53.332;9.860;2023-04-24T00:09:53;12.80;99.90
2523;DHT22;1272;53.332;9.860;2023-04-24T00:12:19;12.80;99.90
2523;DHT22;1272;53.332;9.860;2023-04-24T00:14:45;12.70;99.90
2523;DHT22;1272;53.332;9.860;2023-04-24T00:17:10;12.70;99.90
2523;DHT22;1272;53.332;9.860;2023-04-24T00:19:36;12.70;99.90
2523;DHT22;1272;53.332;9.860;2023-04-24T00:22:02;12.70;99.90
2523;DHT22;1272;53.332;9.860;2023-04-24T00:24:28;12.70;99.90
2523;DHT22;1272;53.332;9.860;2023-04-24T00:26:53;12.70;99.90
2523;DHT22;1272;53.332;9.860;2023-04-24T00:29:19;12.60;99.90
2523;DHT22;1272;53.332;9.860;2023-04-24T00:31:45;12.60;99.90
2523;DHT22;1272;53.332;9.860;2023-04-24T00:34:11;12.50;99.90
2523;DHT22;1272;53.332;9.860;2023-04-24T00:36:37;12.50;99.90
2523;DHT22;1272;53.332;9.860;2023-04-24T00:39:03;12.40;99.90
2523;DHT22;1272;53.332;9.860;2023-04-24T00:41:30;12.40;99.90
2523;DHT22;1272;53.332;9.860;2023-04-24T00:43:55;12.40;99.90
2523;DHT22;1272;53.332;9.860;2023-04-24T00:46:21;12.40;99.90
2523;DHT22;1272;53.332;9.860;2023-04-24T00:48:47;12.40;99.90
2523;DHT22;1272;53.332;9.860;2023-04-24T00:51:13;12.30;99.90
2523;DHT22;1272;53.332;9.860;2023-04-24T00:53:38;12.30;99.90
2523;DHT22;1272;53.332;9.860;2023-04-24T00:56:04;12.30;99.90
2523;DHT22;1272;53.332;9.860;2023-04-24T00:58:31;12.30;99.90
2523;DHT22;1272;53.332;9.860;2023-04-24T01:00:58;12.30;99.90
2523;DHT22;1272;53.332;9.860;2023-04-24T01:03:31;12.30;99.90
2523;DHT22;1272;53.332;9.860;2023-04-24T01:05:57;12.30;99.90
2523;DHT22;1272;53.332;9.860;2023-04-24T01:08:24;12.30;99.90
2523;DHT22;1272;53.332;9.860;2023-04-24T01:10:52;12.30;99.90
2523;DHT22;1272;53.332;9.860;2023-04-24T01:13:19;12.30;99.90
2523;DHT22;1272;53.332;9.860;2023-04-24T01:15:45;12.30;99.90
2523;DHT22;1272;53.332;9.860;2023-04-24T01:18:12;12.30;99.90
2523;DHT22;1272;53.332;9.860;2023-04-24T01:20:40;12.40;99.90
2523;DHT22;1272;53.332;9.860;2023-04-24T01:23:06;12.30;99.90
2523;DHT22;1272;53.332;9.860;2023-04-24T01:25:32;12.30;99.90
2523;DHT22;1272;53.332;9.860;2023-04-24T01:27:59;12.30;99.90
2523;DHT22;1272;53.332;9.860;2023-04-24T01:30:25;12.30;99.90
2523;DHT22;1272;53.332;9.860;2023-04-24T01:32:52;12.30;99.90
2523;DHT22;1272;53.332;9.860;2023-04-24T01:35:19;12.30;99.90
2523;DHT22;1272;53.332;9.860;2023-04-24T01:37:48;12.30;99.90
2523;DHT22;1272;53.332;9.860;2023-04-24T01:40:14;12.30;99.90
2523;DHT22;1272;53.332;9.860;2023-04-24T01:42:41;12.20;99.90
2523;DHT22;1272;53.332;9.860;2023-04-24T01:45:09;12.20;99.90
2523;DHT22;1272;53.332;9.860;2023-04-24T01:47:35;12.10;99.90
2523;DHT22;1272;53.332;9.860;2023-04-24T01:50:02;12.10;99.90
2523;DHT22;1272;53.332;9.860;2023-04-24T01:52:28;12.10;99.90
2523;DHT22;1272;53.332;9.860;2023-04-24T01:54:59;12.00;99.90
2523;DHT22;1272;53.332;9.860;2023-04-24T01:57:25;12.00;99.90
2523;DHT22;1272;53.332;9.860;2023-04-24T01:59:51;12.00;99.90
2523;DHT22;1272;53.332;9.860;2023-04-24T02:02:17;11.90;99.90
2523;DHT22;1272;53.332;9.860;2023-04-24T02:04:43;11.90;99.90
2523;DHT22;1272;53.332;9.860;2023-04-24T02:07:09;11.90;99.90
2523;DHT22;1272;53.332;9.860;2023-04-24T02:09:34;11.90;99.90
2523;DHT22;1272;53.332;9.860;2023-04-24T02:12:00;11.90;99.90
2523;DHT22;1272;53.332;9.860;2023-04-24T02:14:26;11.80;99.90
2523;DHT22;1272;53.332;9.860;2023-04-24T02:16:51;11.80;99.90
2523;DHT22;1272;53.332;9.860;2023-04-24T02:19:18;11.80;99.90
2523;DHT22;1272;53.332;9.860;2023-04-24T02:21:44;11.80;99.90
2523;DHT22;1272;53.332;9.860;2023-04-24T02:24:10;11.80;99.90
2523;DHT22;1272;53.332;9.860;2023-04-24T02:26:36;11.70;99.90
2523;DHT22;1272;53.332;9.860;2023-04-24T02:29:02;11.70;99.90
2523;DHT22;1272;53.332;9.860;2023-04-24T02:31:27;11.70;99.90
2523;DHT22;1272;53.332;9.860;2023-04-24T02:33:53;11.70;99.90
2523;DHT22;1272;53.332;9.860;2023-04-24T02:36:19;11.60;99.90
2523;DHT22;1272;53.332;9.860;2023-04-24T02:38:45;11.60;99.90
2523;DHT22;1272;53.332;9.860;2023-04-24T02:41:10;11.60;99.90
2523;DHT22;1272;53.332;9.860;2023-04-24T02:43:36;11.50;99.90
2523;DHT22;1272;53.332;9.860;2023-04-24T02:46:02;11.50;99.90
2523;DHT22;1272;53.332;9.860;2023-04-24T02:48:28;11.50;99.90
2523;DHT22;1272;53.332;9.860;2023-04-24T02:50:53;11.50;99.90
2523;DHT22;1272;53.332;9.860;2023-04-24T02:53:19;11.50;99.90
2523;DHT22;1272;53.332;9.860;2023-04-24T02:55:45;11.50;99.90
2523;DHT22;1272;53.332;9.860;2023-04-24T02:58:11;11.50;99.90
2523;DHT22;1272;53.332;9.860;2023-04-24T03:00:38;11.50;99.90
2523;DHT22;1272;53.332;9.860;2023-04-24T03:03:05;11.50;99.90
2523;DHT22;1272;53.332;9.860;2023-04-24T03:05:30;11.50;99.90
2523;DHT22;1272;53.332;9.860;2023-04-24T03:07:56;11.50;99.90
2523;DHT22;1272;53.332;9.860;2023-04-24T03:10:22;11.40;99.90
2523;DHT22;1272;53.332;9.860;2023-04-24T03:12:48;11.40;99.90
2523;DHT22;1272;53.332;9.860;2023-04-24T03:15:14;11.40;99.30
2523;DHT22;1272;53.332;9.860;2023-04-24T03:17:40;11.30;95.30
2523;DHT22;1272;53.332;9.860;2023-04-24T03:20:07;11.40;53.80
2523;DHT22;1272;53.332;9.860;2023-04-24T03:22:36;11.30;1.00
2523;DHT22;1272;53.332;9.860;2023-04-24T03:25:01;11.20;1.00
2523;DHT22;1272;53.332;9.860;2023-04-24T03:27:27;11.20;1.00
2523;DHT22;1272;53.332;9.860;2023-04-24T03:29:53;11.10;1.00
2523;DHT22;1272;53.332;9.860;2023-04-24T03:32:21;11.10;1.00
2523;DHT22;1272;53.332;9.860;2023-04-24T03:34:48;11.10;1.00
2523;DHT22;1272;53.332;9.860;2023-04-24T03:37:13;11.10;1.00
2523;DHT22;1272;53.332;9.860;2023-04-24T03:39:39;11.10;1.00
2523;DHT22;1272;53.332;9.860;2023-04-24T03:42:05;11.10;1.00
2523;DHT22;1272;53.332;9.860;2023-04-24T03:44:30;11.00;1.00
2523;DHT22;1272;53.332;9.860;2023-04-24T03:46:58;11.00;99.90
2523;DHT22;1272;53.332;9.860;2023-04-24T03:49:23;11.00;99.90
2523;DHT22;1272;53.332;9.860;2023-04-24T03:51:49;11.00;99.90
2523;DHT22;1272;53.332;9.860;2023-04-24T03:54:15;11.00;65.90
2523;DHT22;1272;53.332;9.860;2023-04-24T03:56:40;10.90;1.00
2523;DHT22;1272;53.332;9.860;2023-04-24T03:59:06;10.90;99.90
2523;DHT22;1272;53.332;9.860;2023-04-24T04:01:32;10.90;1.00
2523;DHT22;1272;53.332;9.860;2023-04-24T04:03:57;10.80;99.90
2523;DHT22;1272;53.332;9.860;2023-04-24T04:06:23;10.80;1.00
2523;DHT22;1272;53.332;9.860;2023-04-24T04:08:49;10.70;1.00
2523;DHT22;1272;53.332;9.860;2023-04-24T04:11:14;10.70;1.00
2523;DHT22;1272;53.332;9.860;2023-04-24T04:13:40;10.60;1.00
2523;DHT22;1272;53.332;9.860;2023-04-24T04:16:06;10.60;99.90
2523;DHT22;1272;53.332;9.860;2023-04-24T04:18:31;10.60;99.90
2523;DHT22;1272;53.332;9.860;2023-04-24T04:20:57;10.50;1.00
2523;DHT22;1272;53.332;9.860;2023-04-24T04:23:23;10.50;1.00
2523;DHT22;1272;53.332;9.860;2023-04-24T04:25:49;10.50;1.00
2523;DHT22;1272;53.332;9.860;2023-04-24T04:28:15;10.50;99.90
2523;DHT22;1272;53.332;9.860;2023-04-24T04:30:41;10.50;1.00
2523;DHT22;1272;53.332;9.860;2023-04-24T04:33:06;10.40;1.00
2523;DHT22;1272;53.332;9.860;2023-04-24T04:35:33;10.40;1.00
2523;DHT22;1272;53.332;9.860;2023-04-24T04:37:59;10.40;99.90
2523;DHT22;1272;53.332;9.860;2023-04-24T04:40:26;10.30;99.90
2523;DHT22;1272;53.332;9.860;2023-04-24T04:42:53;10.40;99.90
2523;DHT22;1272;53.332;9.860;2023-04-24T04:45:19;10.30;99.90
2523;DHT22;1272;53.332;9.860;2023-04-24T04:47:46;10.30;99.90
2523;DHT22;1272;53.332;9.860;2023-04-24T04:50:11;10.30;99.90
2523;DHT22;1272;53.332;9.860;2023-04-24T04:52:37;10.30;99.90
2523;DHT22;1272;53.332;9.860;2023-04-24T04:55:03;10.30;99.90
2523;DHT22;1272;53.332;9.860;2023-04-24T04:57:30;10.30;99.90
2523;DHT22;1272;53.332;9.860;2023-04-24T04:59:56;10.40;99.90
2523;DHT22;1272;53.332;9.860;2023-04-24T05:02:22;10.40;99.90
2523;DHT22;1272;53.332;9.860;2023-04-24T05:04:47;10.50;1.00
2523;DHT22;1272;53.332;9.860;2023-04-24T05:07:13;10.60;1.00
2523;DHT22;1272;53.332;9.860;2023-04-24T05:09:39;10.50;99.90
2523;DHT22;1272;53.332;9.860;2023-04-24T05:12:05;10.70;99.90
2523;DHT22;1272;53.332;9.860;2023-04-24T05:14:30;10.70;1.00
2523;DHT22;1272;53.332;9.860;2023-04-24T05:16:56;10.70;17.00
2523;DHT22;1272;53.332;9.860;2023-04-24T05:19:22;10.70;1.00
2523;DHT22;1272;53.332;9.860;2023-04-24T05:21:47;10.70;1.00
2523;DHT22;1272;53.332;9.860;2023-04-24T05:24:13;10.70;99.90
2523;DHT22;1272;53.332;9.860;2023-04-24T05:26:39;10.80;99.90
2523;DHT22;1272;53.332;9.860;2023-04-24T05:29:04;10.80;99.90
2523;DHT22;1272;53.332;9.860;2023-04-24T05:31:30;10.80;99.90
2523;DHT22;1272;53.332;9.860;2023-04-24T05:33:56;10.80;99.90
2523;DHT22;1272;53.332;9.860;2023-04-24T05:36:21;10.80;85.50
2523;DHT22;1272;53.332;9.860;2023-04-24T05:38:47;10.70;27.00
2523;DHT22;1272;53.332;9.860;2023-04-24T05:41:13;10.80;73.50
2523;DHT22;1272;53.332;9.860;2023-04-24T05:43:38;10.80;12.80
2523;DHT22;1272;53.332;9.860;2023-04-24T05:46:04;10.80;1.00
2523;DHT22;1272;53.332;9.860;2023-04-24T05:48:30;10.80;1.00
2523;DHT22;1272;53.332;9.860;2023-04-24T05:50:56;10.90;1.00
2523;DHT22;1272;53.332;9.860;2023-04-24T05:53:22;10.90;99.90
2523;DHT22;1272;53.332;9.860;2023-04-24T05:55:47;10.80;1.00
2523;DHT22;1272;53.332;9.860;2023-04-24T05:58:13;10.90;1.00
2523;DHT22;1272;53.332;9.860;2023-04-24T06:00:40;10.90;1.00
2523;DHT22;1272;53.332;9.860;2023-04-24T06:03:08;10.80;99.90
2523;DHT22;1272;53.332;9.860;2023-04-24T06:05:34;10.90;99.90
2523;DHT22;1272;53.332;9.860;2023-04-24T06:08:00;10.90;1.00
2523;DHT22;1272;53.332;9.860;2023-04-24T06:10:26;10.90;99.90
2523;DHT22;1272;53.332;9.860;2023-04-24T06:12:51;11.00;99.90
2523;DHT22;1272;53.332;9.860;2023-04-24T06:15:17;11.10;99.90
2523;DHT22;1272;53.332;9.860;2023-04-24T06:17:43;11.10;99.90
2523;DHT22;1272;53.332;9.860;2023-04-24T06:20:09;11.20;99.90
2523;DHT22;1272;53.332;9.860;2023-04-24T06:22:36;11.20;56.80
2523;DHT22;1272;53.332;9.860;2023-04-24T06:25:02;11.20;99.90
2523;DHT22;1272;53.332;9.860;2023-04-24T06:27:27;11.20;99.90
2523;DHT22;1272;53.332;9.860;2023-04-24T06:29:53;11.20;1.00
2523;DHT22;1272;53.332;9.860;2023-04-24T06:32:24;11.20;1.00
2523;DHT22;1272;53.332;9.860;2023-04-24T06:34:51;11.30;1.00
2523;DHT22;1272;53.332;9.860;2023-04-24T06:37:18;11.30;99.90
2523;DHT22;1272;53.332;9.860;2023-04-24T06:39:44;11.30;99.90
2523;DHT22;1272;53.332;9.860;2023-04-24T06:42:10;11.40;99.90
2523;DHT22;1272;53.332;9.860;2023-04-24T06:44:36;11.40;99.90
2523;DHT22;1272;53.332;9.860;2023-04-24T06:47:07;11.50;99.90
2523;DHT22;1272;53.332;9.860;2023-04-24T06:49:37;11.60;1.00
2523;DHT22;1272;53.332;9.860;2023-04-24T06:52:03;11.60;99.90
2523;DHT22;1272;53.332;9.860;2023-04-24T06:54:29;11.60;1.00
2523;DHT22;1272;53.332;9.860;2023-04-24T06:56:55;11.60;1.00
2523;DHT22;1272;53.332;9.860;2023-04-24T06:59:23;11.60;1.00
2523;DHT22;1272;53.332;9.860;2023-04-24T07:01:49;11.70;1.00
2523;DHT22;1272;53.332;9.860;2023-04-24T07:04:14;11.70;1.00
2523;DHT22;1272;53.332;9.860;2023-04-24T07:06:40;11.70;99.90
2523;DHT22;1272;53.332;9.860;2023-04-24T07:09:08;11.70;99.90
2523;DHT22;1272;53.332;9.860;2023-04-24T07:11:35;11.70;99.90
2523;DHT22;1272;53.332;9.860;2023-04-24T07:14:01;11.80;99.90
2523;DHT22;1272;53.332;9.860;2023-04-24T07:16:26;11.90;1.00
2523;DHT22;1272;53.332;9.860;2023-04-24T07:18:52;11.80;99.90
2523;DHT22;1272;53.332;9.860;2023-04-24T07:21:18;11.90;99.90
2523;DHT22;1272;53.332;9.860;2023-04-24T07:23:43;12.00;1.00
2523;DHT22;1272;53.332;9.860;2023-04-24T07:26:09;12.00;1.00
2523;DHT22;1272;53.332;9.860;2023-04-24T07:28:35;12.00;1.00
2523;DHT22;1272;53.332;9.860;2023-04-24T07:31:01;12.20;1.00
2523;DHT22;1272;53.332;9.860;2023-04-24T07:33:27;12.20;99.90
2523;DHT22;1272;53.332;9.860;2023-04-24T07:35:53;12.30;1.00
2523;DHT22;1272;53.332;9.860;2023-04-24T07:38:18;12.40;99.90
2523;DHT22;1272;53.332;9.860;2023-04-24T07:40:48;12.30;91.70
2523;DHT22;1272;53.332;9.860;2023-04-24T07:43:14;12.40;99.90
2523;DHT22;1272;53.332;9.860;2023-04-24T07:45:40;12.50;99.90
2523;DHT22;1272;53.332;9.860;2023-04-24T07:48:06;12.60;1.00
2523;DHT22;1272;53.332;9.860;2023-04-24T07:50:31;12.50;1.00
2523;DHT22;1272;53.332;9.860;2023-04-24T07:52:57;12.50;1.00
2523;DHT22;1272;53.332;9.860;2023-04-24T07:55:23;12.50;1.00
2523;DHT22;1272;53.332;9.860;2023-04-24T07:57:49;12.40;1.00
2523;DHT22;1272;53.332;9.860;2023-04-24T08:00:15;12.40;99.90
2523;DHT22;1272;53.332;9.860;2023-04-24T08:02:41;12.30;1.00
2523;DHT22;1272;53.332;9.860;2023-04-24T08:05:07;12.30;99.90
2523;DHT22;1272;53.332;9.860;2023-04-24T08:07:33;12.20;1.00
2523;DHT22;1272;53.332;9.860;2023-04-24T08:09:58;12.30;1.00
2523;DHT22;1272;53.332;9.860;2023-04-24T08:12:25;12.30;1.00
2523;DHT22;1272;53.332;9.860;2023-04-24T08:14:50;12.30;1.00
2523;DHT22;1272;53.332;9.860;2023-04-24T08:17:17;12.30;1.00
2523;DHT22;1272;53.332;9.860;2023-04-24T08:19:42;12.20;99.90
2523;DHT22;1272;53.332;9.860;2023-04-24T08:22:13;12.20;1.00
2523;DHT22;1272;53.332;9.860;2023-04-24T08:24:38;12.30;1.00
2523;DHT22;1272;53.332;9.860;2023-04-24T08:27:04;12.50;99.90
2523;DHT22;1272;53.332;9.860;2023-04-24T08:29:30;12.60;99.90
2523;DHT22;1272;53.332;9.860;2023-04-24T08:31:56;12.70;99.90
2523;DHT22;1272;53.332;9.860;2023-04-24T08:34:22;12.70;31.30
2523;DHT22;1272;53.332;9.860;2023-04-24T08:36:48;12.90;47.80
2523;DHT22;1272;53.332;9.860;2023-04-24T08:39:14;13.10;1.00
2523;DHT22;1272;53.332;9.860;2023-04-24T08:41:43;13.20;1.00
2523;DHT22;1272;53.332;9.860;2023-04-24T08:44:11;13.30;1.00
2523;DHT22;1272;53.332;9.860;2023-04-24T08:46:40;13.40;1.00
2523;DHT22;1272;53.332;9.860;2023-04-24T08:49:06;13.20;1.00
2523;DHT22;1272;53.332;9.860;2023-04-24T08:51:32;13.10;1.00
2523;DHT22;1272;53.332;9.860;2023-04-24T08:53:58;12.90;1.00
2523;DHT22;1272;53.332;9.860;2023-04-24T08:56:24;12.90;59.80
2523;DHT22;1272;53.332;9.860;2023-04-24T08:58:51;12.90;1.00
2523;DHT22;1272;53.332;9.860;2023-04-24T09:01:19;12.80;1.00
2523;DHT22;1272;53.332;9.860;2023-04-24T09:03:47;12.70;55.20
2523;DHT22;1272;53.332;9.860;2023-04-24T09:06:14;12.70;6.00
2523;DHT22;1272;53.332;9.860;2023-04-24T09:08:42;12.70;91.90
2523;DHT22;1272;53.332;9.860;2023-04-24T09:11:10;12.70;97.50
2523;DHT22;1272;53.332;9.860;2023-04-24T09:13:36;12.80;96.40
2523;DHT22;1272;53.332;9.860;2023-04-24T09:16:03;12.80;99.90
2523;DHT22;1272;53.332;9.860;2023-04-24T09:18:28;12.80;47.60
2523;DHT22;1272;53.332;9.860;2023-04-24T09:21:02;12.80;41.20
2523;DHT22;1272;53.332;9.860;2023-04-24T09:23:30;12.80;1.00
2523;DHT22;1272;53.332;9.860;2023-04-24T09:25:57;12.70;1.00
2523;DHT22;1272;53.332;9.860;2023-04-24T09:28:41;12.70;1.00
2523;DHT22;1272;53.332;9.860;2023-04-24T09:31:14;12.70;20.20
2523;DHT22;1272;53.332;9.860;2023-04-24T09:33:53;12.70;44.60
2523;DHT22;1272;53.332;9.860;2023-04-24T09:36:36;12.80;99.90
2523;DHT22;1272;53.332;9.860;2023-04-24T09:39:08;12.90;56.60
2523;DHT22;1272;53.332;9.860;2023-04-24T09:42:04;12.90;53.40
2523;DHT22;1272;53.332;9.860;2023-04-24T09:44:29;12.90;94.00
2523;DHT22;1272;53.332;9.860;2023-04-24T09:46:59;12.90;99.90
2523;DHT22;1272;53.332;9.860;2023-04-24T09:49:30;12.80;99.90
2523;DHT22;1272;53.332;9.860;2023-04-24T09:52:10;12.80;99.90
2523;DHT22;1272;53.332;9.860;2023-04-24T09:54:37;12.80;99.90
2523;DHT22;1272;53.332;9.860;2023-04-24T09:57:03;12.80;99.90
2523;DHT22;1272;53.332;9.860;2023-04-24T09:59:29;12.90;99.90
2523;DHT22;1272;53.332;9.860;2023-04-24T10:01:55;12.90;58.10
2523;DHT22;1272;53.332;9.860;2023-04-24T10:04:23;12.80;60.70
2523;DHT22;1272;53.332;9.860;2023-04-24T10:06:51;12.70;22.90
2523;DHT22;1272;53.332;9.860;2023-04-24T10:09:19;12.70;99.90
2523;DHT22;1272;53.332;9.860;2023-04-24T10:11:46;12.70;3.50
2523;DHT22;1272;53.332;9.860;2023-04-24T10:14:14;12.80;58.30
2523;DHT22;1272;53.332;9.860;2023-04-24T10:16:40;12.80;61.60
2523;DHT22;1272;53.332;9.860;2023-04-24T10:19:06;12.90;68.60
2523;DHT22;1272;53.332;9.860;2023-04-24T10:21:33;12.90;1.00
2523;DHT22;1272;53.332;9.860;2023-04-24T10:23:59;12.90;40.00
2523;DHT22;1272;53.332;9.860;2023-04-24T10:26:28;13.00;20.50
2523;DHT22;1272;53.332;9.860;2023-04-24T10:28:57;13.10;1.00
2523;DHT22;1272;53.332;9.860;2023-04-24T10:31:24;13.20;1.00
2523;DHT22;1272;53.332;9.860;2023-04-24T10:33:51;13.30;1.00
2523;DHT22;1272;53.332;9.860;2023-04-24T10:36:18;13.30;1.00
2523;DHT22;1272;53.332;9.860;2023-04-24T10:38:46;13.30;1.00
2523;DHT22;1272;53.332;9.860;2023-04-24T10:41:14;13.30;1.00
2523;DHT22;1272;53.332;9.860;2023-04-24T10:43:45;13.40;1.00
2523;DHT22;1272;53.332;9.860;2023-04-24T10:46:19;13.30;1.00
2523;DHT22;1272;53.332;9.860;2023-04-24T10:48:53;13.30;1.00
2523;DHT22;1272;53.332;9.860;2023-04-24T10:51:25;13.30;1.00
2523;DHT22;1272;53.332;9.860;2023-04-24T10:59:44;13.30;1.00
2523;DHT22;1272;53.332;9.860;2023-04-24T11:02:10;13.40;1.00
2523;DHT22;1272;53.332;9.860;2023-04-24T11:04:35;13.50;1.00
2523;DHT22;1272;53.332;9.860;2023-04-24T11:07:03;13.60;1.00
2523;DHT22;1272;53.332;9.860;2023-04-24T11:09:31;13.50;99.90
2523;DHT22;1272;53.332;9.860;2023-04-24T11:12:06;13.60;1.00
2523;DHT22;1272;53.332;9.860;2023-04-24T11:17:35;13.70;1.00
2523;DHT22;1272;53.332;9.860;2023-04-24T11:22:33;13.70;99.90
2523;DHT22;1272;53.332;9.860;2023-04-24T11:25:00;13.80;99.90
2523;DHT22;1272;53.332;9.860;2023-04-24T11:27:38;13.80;99.90
2523;DHT22;1272;53.332;9.860;2023-04-24T11:30:04;13.70;99.90
2523;DHT22;1272;53.332;9.860;2023-04-24T11:35:08;13.60;99.90
2523;DHT22;1272;53.332;9.860;2023-04-24T11:37:44;13.70;99.90
2523;DHT22;1272;53.332;9.860;2023-04-24T11:40:18;13.70;99.90
2523;DHT22;1272;53.332;9.860;2023-04-24T11:42:52;13.70;99.90
2523;DHT22;1272;53.332;9.860;2023-04-24T11:45:25;13.60;99.90
2523;DHT22;1272;53.332;9.860;2023-04-24T11:47:52;13.70;99.90
2523;DHT22;1272;53.332;9.860;2023-04-24T11:50:21;13.70;99.90
2523;DHT22;1272;53.332;9.860;2023-04-24T11:52:49;13.80;99.90
2523;DHT22;1272;53.332;9.860;2023-04-24T11:57:45;13.90;99.90
2523;DHT22;1272;53.332;9.860;2023-04-24T12:02:46;13.70;99.90
2523;DHT22;1272;53.332;9.860;2023-04-24T12:05:24;13.60;99.90
2523;DHT22;1272;53.332;9.860;2023-04-24T12:07:51;13.50;99.90
2523;DHT22;1272;53.332;9.860;2023-04-24T12:10:25;13.40;99.90
2523;DHT22;1272;53.332;9.860;2023-04-24T12:12:51;13.30;99.90
2523;DHT22;1272;53.332;9.860;2023-04-24T12:15:19;13.20;99.90
2523;DHT22;1272;53.332;9.860;2023-04-24T12:17:46;13.10;99.90
2523;DHT22;1272;53.332;9.860;2023-04-24T12:20:13;13.10;99.90
2523;DHT22;1272;53.332;9.860;2023-04-24T12:22:47;13.00;99.90
2523;DHT22;1272;53.332;9.860;2023-04-24T12:25:17;12.90;99.90
2523;DHT22;1272;53.332;9.860;2023-04-24T12:27:47;12.90;1.00
2523;DHT22;1272;53.332;9.860;2023-04-24T12:30:17;12.80;1.00
2523;DHT22;1272;53.332;9.860;2023-04-24T12:32:47;12.80;1.00
2523;DHT22;1272;53.332;9.860;2023-04-24T12:35:20;12.90;1.00
2523;DHT22;1272;53.332;9.860;2023-04-24T12:37:46;13.00;1.00
2523;DHT22;1272;53.332;9.860;2023-04-24T12:40:12;13.00;1.00
2523;DHT22;1272;53.332;9.860;2023-04-24T12:42:50;13.00;1.00
2523;DHT22;1272;53.332;9.860;2023-04-24T12:45:17;12.90;1.00
2523;DHT22;1272;53.332;9.860;2023-04-24T12:47:44;12.90;1.00
2523;DHT22;1272;53.332;9.860;2023-04-24T12:50:14;13.00;1.00
2523;DHT22;1272;53.332;9.860;2023-04-24T12:52:41;12.90;1.00
2523;DHT22;1272;53.332;9.860;2023-04-24T12:55:07;12.80;1.00
2523;DHT22;1272;53.332;9.860;2023-04-24T12:57:34;12.70;1.00
2523;DHT22;1272;53.332;9.860;2023-04-24T13:00:01;12.70;1.00
2523;DHT22;1272;53.332;9.860;2023-04-24T13:02:28;12.70;1.00
2523;DHT22;1272;53.332;9.860;2023-04-24T13:04:55;12.80;1.00
2523;DHT22;1272;53.332;9.860;2023-04-24T13:07:21;12.80;1.00
2523;DHT22;1272;53.332;9.860;2023-04-24T13:09:48;12.80;1.00
2523;DHT22;1272;53.332;9.860;2023-04-24T13:12:15;12.90;1.00
2523;DHT22;1272;53.332;9.860;2023-04-24T13:14:41;12.80;1.00
2523;DHT22;1272;53.332;9.860;2023-04-24T13:17:06;12.80;1.00
2523;DHT22;1272;53.332;9.860;2023-04-24T13:19:37;12.70;27.50
2523;DHT22;1272;53.332;9.860;2023-04-24T13:22:03;12.70;99.90
2523;DHT22;1272;53.332;9.860;2023-04-24T13:24:29;12.70;99.90
2523;DHT22;1272;53.332;9.860;2023-04-24T13:26:56;12.60;99.90
2523;DHT22;1272;53.332;9.860;2023-04-24T13:29:22;12.60;99.90
2523;DHT22;1272;53.332;9.860;2023-04-24T13:31:50;12.60;1.00
2523;DHT22;1272;53.332;9.860;2023-04-24T13:34:17;12.40;9.20
2523;DHT22;1272;53.332;9.860;2023-04-24T13:36:43;12.30;7.90
2523;DHT22;1272;53.332;9.860;2023-04-24T13:39:09;12.40;80.90
2523;DHT22;1272;53.332;9.860;2023-04-24T13:41:35;12.50;90.70
2523;DHT22;1272;53.332;9.860;2023-04-24T13:44:02;12.60;1.00
2523;DHT22;1272;53.332;9.860;2023-04-24T13:46:28;12.80;1.00
2523;DHT22;1272;53.332;9.860;2023-04-24T13:48:53;12.90;1.00
2523;DHT22;1272;53.332;9.860;2023-04-24T13:51:19;12.90;1.00
2523;DHT22;1272;53.332;9.860;2023-04-24T13:53:45;12.80;1.00
2523;DHT22;1272;53.332;9.860;2023-04-24T13:56:11;12.80;1.00
2523;DHT22;1272;53.332;9.860;2023-04-24T13:58:38;12.90;1.00
2523;DHT22;1272;53.332;9.860;2023-04-24T14:01:04;12.90;1.00
2523;DHT22;1272;53.332;9.860;2023-04-24T14:03:30;13.00;1.00
2523;DHT22;1272;53.332;9.860;2023-04-24T14:05:56;12.90;1.00
2523;DHT22;1272;53.332;9.860;2023-04-24T14:08:21;13.00;1.00
2523;DHT22;1272;53.332;9.860;2023-04-24T14:10:47;12.90;1.00
2523;DHT22;1272;53.332;9.860;2023-04-24T14:13:13;12.80;1.00
2523;DHT22;1272;53.332;9.860;2023-04-24T14:15:39;12.60;1.00
2523;DHT22;1272;53.332;9.860;2023-04-24T14:18:05;12.50;37.00
2523;DHT22;1272;53.332;9.860;2023-04-24T14:20:31;12.40;99.90
2523;DHT22;1272;53.332;9.860;2023-04-24T14:22:57;12.30;99.90
2523;DHT22;1272;53.332;9.860;2023-04-24T14:25:26;12.20;1.00
2523;DHT22;1272;53.332;9.860;2023-04-24T14:27:52;12.10;1.00
2523;DHT22;1272;53.332;9.860;2023-04-24T14:30:20;12.00;99.90
2523;DHT22;1272;53.332;9.860;2023-04-24T14:32:46;11.90;1.00
2523;DHT22;1272;53.332;9.860;2023-04-24T14:35:11;11.80;1.00
2523;DHT22;1272;53.332;9.860;2023-04-24T14:37:37;11.70;99.90
2523;DHT22;1272;53.332;9.860;2023-04-24T14:40:03;11.80;1.00
2523;DHT22;1272;53.332;9.860;2023-04-24T14:42:33;11.80;99.90
2523;DHT22;1272;53.332;9.860;2023-04-24T14:44:59;11.80;99.90
2523;DHT22;1272;53.332;9.860;2023-04-24T14:47:25;11.80;1.00
2523;DHT22;1272;53.332;9.860;2023-04-24T14:49:51;11.70;1.00
2523;DHT22;1272;53.332;9.860;2023-04-24T14:52:17;11.70;1.00
2523;DHT22;1272;53.332;9.860;2023-04-24T14:54:43;11.50;1.00
2523;DHT22;1272;53.332;9.860;2023-04-24T14:57:09;11.40;1.00
2523;DHT22;1272;53.332;9.860;2023-04-24T14:59:35;11.30;38.80
2523;DHT22;1272;53.332;9.860;2023-04-24T15:02:00;11.20;99.90
2523;DHT22;1272;53.332;9.860;2023-04-24T15:04:27;11.20;99.90
2523;DHT22;1272;53.332;9.860;2023-04-24T15:06:54;11.00;99.90
2523;DHT22;1272;53.332;9.860;2023-04-24T15:09:21;10.90;99.90
2523;DHT22;1272;53.332;9.860;2023-04-24T15:11:48;10.80;99.90
2523;DHT22;1272;53.332;9.860;2023-04-24T15:14:15;10.70;99.90
2523;DHT22;1272;53.332;9.860;2023-04-24T15:16:40;10.60;99.90
2523;DHT22;1272;53.332;9.860;2023-04-24T15:19:06;10.60;99.90
2523;DHT22;1272;53.332;9.860;2023-04-24T15:21:32;10.40;99.90
2523;DHT22;1272;53.332;9.860;2023-04-24T15:23:58;10.30;99.90
2523;DHT22;1272;53.332;9.860;2023-04-24T15:26:24;10.30;99.90
2523;DHT22;1272;53.332;9.860;2023-04-24T15:28:51;10.20;99.90
2523;DHT22;1272;53.332;9.860;2023-04-24T15:31:17;10.00;99.90
2523;DHT22;1272;53.332;9.860;2023-04-24T15:33:43;9.80;99.90
2523;DHT22;1272;53.332;9.860;2023-04-24T15:36:09;9.60;99.90
2523;DHT22;1272;53.332;9.860;2023-04-24T15:38:36;9.60;99.90
2523;DHT22;1272;53.332;9.860;2023-04-24T15:41:03;9.60;99.90
2523;DHT22;1272;53.332;9.860;2023-04-24T15:43:29;9.40;99.90
2523;DHT22;1272;53.332;9.860;2023-04-24T15:45:57;9.40;99.90
2523;DHT22;1272;53.332;9.860;2023-04-24T15:48:22;9.30;99.90
2523;DHT22;1272;53.332;9.860;2023-04-24T15:50:48;9.30;99.90
2523;DHT22;1272;53.332;9.860;2023-04-24T15:53:14;9.20;99.90
2523;DHT22;1272;53.332;9.860;2023-04-24T15:55:47;9.10;99.90
2523;DHT22;1272;53.332;9.860;2023-04-24T15:58:12;9.10;99.90
2523;DHT22;1272;53.332;9.860;2023-04-24T16:00:38;9.10;99.90
2523;DHT22;1272;53.332;9.860;2023-04-24T16:03:04;9.00;99.90
2523;DHT22;1272;53.332;9.860;2023-04-24T16:05:29;9.00;99.90
2523;DHT22;1272;53.332;9.860;2023-04-24T16:07:55;8.90;99.90
2523;DHT22;1272;53.332;9.860;2023-04-24T16:10:21;8.90;99.90
2523;DHT22;1272;53.332;9.860;2023-04-24T16:12:47;8.90;99.90
2523;DHT22;1272;53.332;9.860;2023-04-24T16:15:13;8.80;99.90
2523;DHT22;1272;53.332;9.860;2023-04-24T16:17:39;8.70;99.90
2523;DHT22;1272;53.332;9.860;2023-04-24T16:20:05;8.70;99.90
2523;DHT22;1272;53.332;9.860;2023-04-24T16:22:31;8.70;99.90